CheckWX is a tool to help pilots better visualize weather data.  It is not intended as a substitute for an official pre-flight weather briefing.

14:43:09 UTC

KEKY METAR
Bessemer Airport
Bessemer, Alabama, USA
Current

17 mins ago

KEKY 201426Z AUTO 27004KT 10SM FEW027 BKN045 23/19 A3010 RMK AO2
Observed
May-20 @ 14:26 UTC
Wind
  • 270° at 4 KTS
Visibility
10 SM
Flight Rules
VFR
Cloud Levels
  • Few at 2,700' AGL
  • Broken at 4,500' AGL
Temperature
23°C / 73°F
Dewpoint
19°C / 66°F
Humidity
78%
Altimeter
30.1" Hg
Pressure
1019.32 hPa
Previous

31 mins ago

KEKY 201412Z AUTO 29005KT 10SM BKN027 BKN034 BKN045 23/20 A3010 RMK AO2
Observed
May-20 @ 14:12 UTC
Wind
  • 290° at 5 KTS
Visibility
10 SM
Flight Rules
MVFR
Cloud Levels
  • Broken at 2,700' AGL
  • Broken at 3,400' AGL
  • Broken at 4,500' AGL
Temperature
23°C / 73°F
Dewpoint
20°C / 68°F
Humidity
83%
Altimeter
30.1" Hg
Pressure
1019.32 hPa
Previous

47 mins ago

KEKY 201356Z AUTO 28005KT 2 1/2SM HZ OVC027 22/19 A3010 RMK AO2 SLP202 T02220194
Observed
May-20 @ 13:56 UTC
Wind
  • 280° at 5 KTS
Visibility
2 1/2 SM
Flight Rules
IFR
Conditions
Haze
Cloud Levels
  • Overcast at 2,700' AGL
Temperature
22°C / 72°F
Dewpoint
19°C / 66°F
Humidity
83%
Altimeter
30.1" Hg
Pressure
1019.32 hPa